createdAt,value
2019-02-25T00:01:30.069Z,5.93
2019-02-25T00:04:12.675Z,6.27
2019-02-25T00:13:26.571Z,6.23
2019-02-25T00:19:11.047Z,5.73
2019-02-25T00:22:00.989Z,6.60
2019-02-25T00:24:50.788Z,5.70
2019-02-25T00:27:40.583Z,6.13
2019-02-25T00:30:30.310Z,6.10
2019-02-25T00:33:20.056Z,5.67
2019-02-25T00:36:09.829Z,5.80
2019-02-25T00:38:59.557Z,5.60
2019-02-25T00:42:08.395Z,6.13
2019-02-25T00:44:58.193Z,5.93
2019-02-25T00:47:48.144Z,6.00
2019-02-25T00:50:37.906Z,5.67
2019-02-25T00:56:16.305Z,6.17
2019-02-25T00:58:46.915Z,5.87
2019-02-25T01:01:36.641Z,5.63
2019-02-25T01:04:19.836Z,5.60
2019-02-25T01:07:09.643Z,6.10
2019-02-25T01:09:59.436Z,5.80
2019-02-25T01:12:49.225Z,6.33
2019-02-25T01:15:38.912Z,5.93
2019-02-25T01:18:28.599Z,5.77
2019-02-25T01:21:18.283Z,6.37
2019-02-25T01:24:01.008Z,5.70
2019-02-25T01:26:50.699Z,6.00
2019-02-25T01:29:32.909Z,5.53
2019-02-25T01:32:22.637Z,5.33
2019-02-25T01:35:06.037Z,5.40
2019-02-25T01:37:55.835Z,5.80
2019-02-25T01:40:37.858Z,5.40
2019-02-25T01:43:27.582Z,5.77
2019-02-25T01:46:09.515Z,6.00
2019-02-25T01:48:59.268Z,5.50
2019-02-25T01:51:41.629Z,5.93
2019-02-25T01:54:31.355Z,5.50
2019-02-25T01:57:13.938Z,4.73
2019-02-25T02:00:03.782Z,5.00
2019-02-25T02:02:46.066Z,5.87
2019-02-25T02:05:35.765Z,5.10
2019-02-25T02:08:17.957Z,5.50
2019-02-25T02:11:07.661Z,5.63
2019-02-25T02:13:49.884Z,6.13
2019-02-25T02:16:39.599Z,5.43
2019-02-25T02:19:21.544Z,5.93
2019-02-25T02:22:11.273Z,5.40
2019-02-25T02:24:53.830Z,4.97
2019-02-25T02:27:43.522Z,5.77
2019-02-25T02:30:33.239Z,5.47
2019-02-25T02:33:15.742Z,5.87
2019-02-25T02:36:05.599Z,5.73
2019-02-25T02:38:55.398Z,5.87
2019-02-25T02:42:23.298Z,5.80
2019-02-25T02:45:34.070Z,5.37
2019-02-25T02:48:39.926Z,5.13
2019-02-25T02:51:29.716Z,5.47
2019-02-25T02:54:19.433Z,5.20
2019-02-25T02:57:02.065Z,5.47
2019-02-25T02:59:51.814Z,6.10
2019-02-25T03:02:41.564Z,5.43
2019-02-25T03:08:08.351Z,5.17
2019-02-25T03:10:52.871Z,5.37
2019-02-25T03:13:35.506Z,5.43
2019-02-25T03:16:06.122Z,5.57
2019-02-25T03:18:55.954Z,5.00
2019-02-25T03:21:38.936Z,4.83
2019-02-25T03:24:21.084Z,5.00
2019-02-25T03:27:10.792Z,5.50
2019-02-25T03:29:53.162Z,5.13
2019-02-25T03:32:42.875Z,5.33
2019-02-25T03:35:24.982Z,4.87
2019-02-25T03:38:14.716Z,5.30
2019-02-25T03:40:58.514Z,5.47
2019-02-25T03:43:48.216Z,5.33
2019-02-25T03:46:30.317Z,5.70
2019-02-25T03:49:20.009Z,5.03
2019-02-25T03:52:02.192Z,5.43
2019-02-25T03:54:51.888Z,4.80
2019-02-25T03:57:36.129Z,5.07
2019-02-25T04:00:20.365Z,5.00
2019-02-25T04:03:02.373Z,5.10
2019-02-25T04:05:52.134Z,5.23
2019-02-25T04:08:41.988Z,5.00
2019-02-25T04:11:31.710Z,5.23
2019-02-25T04:14:14.368Z,5.37
2019-02-25T04:17:04.157Z,5.13
2019-02-25T04:19:53.900Z,5.43
2019-02-25T04:22:43.585Z,5.30
2019-02-25T04:25:26.485Z,5.07
2019-02-25T04:28:16.260Z,5.47
2019-02-25T04:31:06.019Z,5.63
2019-02-25T04:33:55.908Z,5.23
2019-02-25T04:36:45.654Z,5.43
2019-02-25T04:39:35.383Z,5.83
2019-02-25T04:42:25.150Z,5.87
2019-02-25T04:45:35.033Z,5.50
2019-02-25T04:48:17.301Z,6.00
2019-02-25T04:51:07.012Z,6.20
2019-02-25T04:53:56.807Z,6.20
2019-02-25T04:56:46.583Z,5.90
2019-02-25T04:59:36.589Z,5.53
2019-02-25T05:02:26.352Z,6.50
2019-02-25T05:05:16.249Z,5.57
2019-02-25T05:08:06.073Z,6.10
2019-02-25T05:16:55.427Z,5.77
2019-02-25T05:19:26.087Z,5.40
2019-02-25T05:22:15.819Z,6.33
2019-02-25T05:24:58.417Z,5.73
2019-02-25T05:27:48.135Z,6.90
2019-02-25T05:30:30.723Z,6.30
2019-02-25T05:33:20.464Z,6.33
2019-02-25T05:36:10.186Z,5.90
2019-02-25T05:38:53.124Z,6.53
2019-02-25T05:44:36.605Z,6.20
2019-02-25T05:47:26.425Z,6.37
2019-02-25T05:50:16.251Z,6.03
2019-02-25T05:53:06.016Z,6.57
2019-02-25T05:55:55.734Z,6.33
2019-02-25T05:58:45.499Z,6.43
2019-02-25T06:01:35.418Z,5.63
2019-02-25T06:04:25.211Z,6.33
2019-02-25T06:07:14.959Z,5.87
2019-02-25T06:09:45.607Z,6.80
2019-02-25T06:15:40.490Z,6.37
2019-02-25T06:18:22.872Z,7.27
2019-02-25T06:21:12.606Z,6.17
2019-02-25T06:24:02.405Z,5.90
2019-02-25T06:26:52.231Z,6.70
2019-02-25T06:29:42.016Z,6.50
2019-02-25T06:32:31.798Z,6.23
2019-02-25T06:35:21.579Z,6.07
2019-02-25T06:38:11.587Z,6.63
2019-02-25T06:41:01.366Z,6.47
2019-02-25T06:43:51.126Z,6.33
2019-02-25T06:46:40.906Z,6.40
2019-02-25T06:49:30.708Z,5.90
2019-02-25T06:52:20.452Z,5.70
2019-02-25T06:55:12.126Z,5.80
2019-02-25T06:58:01.838Z,6.43
2019-02-25T07:00:44.704Z,5.90
2019-02-25T07:03:34.458Z,6.20
2019-02-25T07:06:30.663Z,6.10
2019-02-25T07:09:39.282Z,6.17
2019-02-25T07:12:47.884Z,6.03
2019-02-25T07:15:56.454Z,6.00
2019-02-25T07:19:05.064Z,6.50
2019-02-25T07:22:13.730Z,6.33
2019-02-25T07:25:20.972Z,7.00
2019-02-25T07:28:29.548Z,6.57
2019-02-25T07:31:38.154Z,6.80
2019-02-25T07:34:43.103Z,7.20
2019-02-25T07:37:44.832Z,6.57
2019-02-25T07:40:53.405Z,6.63
2019-02-25T07:44:01.953Z,7.43
2019-02-25T07:47:10.538Z,8.27
2019-02-25T07:50:11.324Z,10.37
2019-02-25T07:53:12.651Z,11.03
2019-02-25T07:56:21.225Z,8.63
2019-02-25T07:59:42.737Z,9.27
2019-02-25T08:02:47.936Z,8.03
2019-02-25T08:05:56.479Z,8.33
2019-02-25T08:08:57.580Z,9.83
2019-02-25T08:12:06.139Z,10.67
2019-02-25T08:15:09.066Z,8.13
2019-02-25T08:18:05.542Z,9.17
2019-02-25T08:21:04.356Z,9.50
2019-02-25T08:24:12.939Z,8.80
2019-02-25T08:27:14.163Z,8.37
2019-02-25T08:30:11.558Z,9.57
2019-02-25T08:33:12.874Z,10.13
2019-02-25T08:37:02.857Z,9.70
2019-02-25T08:40:07.739Z,8.37
2019-02-25T08:43:14.620Z,9.37
2019-02-25T08:46:02.475Z,8.50
2019-02-25T08:48:55.710Z,8.13
2019-02-25T08:51:38.079Z,8.13
2019-02-25T08:54:27.791Z,8.33
2019-02-25T08:57:17.507Z,8.03
2019-02-25T09:00:00.112Z,8.17
2019-02-25T09:02:49.902Z,8.20
2019-02-25T09:08:55.825Z,7.17
2019-02-25T09:11:45.571Z,7.73
2019-02-25T09:14:35.332Z,7.17
2019-02-25T09:17:25.086Z,6.97
2019-02-25T09:20:15.784Z,6.20
2019-02-25T09:23:05.505Z,6.20
2019-02-25T09:25:55.263Z,6.53
2019-02-25T09:28:37.701Z,6.57
2019-02-25T09:31:08.391Z,5.83
2019-02-25T09:33:58.095Z,6.00
2019-02-25T09:36:47.895Z,6.00
2019-02-25T09:39:37.643Z,5.70
2019-02-25T09:42:27.442Z,6.03
2019-02-25T09:45:17.235Z,5.77
2019-02-25T09:51:11.359Z,6.70
2019-02-25T09:53:54.751Z,5.70
2019-02-25T09:56:44.490Z,5.47
2019-02-25T09:59:34.275Z,6.00
2019-02-25T10:02:24.861Z,6.17
2019-02-25T10:05:08.275Z,6.07
2019-02-25T10:07:58.028Z,7.00
2019-02-25T10:10:47.784Z,7.17
2019-02-25T10:13:37.611Z,7.10
2019-02-25T10:16:27.369Z,6.10
2019-02-25T10:19:17.156Z,6.13
2019-02-25T10:22:06.925Z,6.33
2019-02-25T10:24:56.720Z,6.53
2019-02-25T10:27:46.438Z,6.63
2019-02-25T10:30:33.091Z,6.30
2019-02-25T10:33:15.400Z,6.93
2019-02-25T10:36:05.154Z,6.23
2019-02-25T10:38:54.881Z,6.10
2019-02-25T10:41:44.614Z,5.53
2019-02-25T10:44:36.083Z,6.50
2019-02-25T10:47:25.823Z,6.73
2019-02-25T10:50:15.861Z,6.70
2019-02-25T10:53:03.544Z,5.93
2019-02-25T10:56:14.878Z,5.83
2019-02-25T10:59:00.213Z,6.03
2019-02-25T11:01:50.220Z,6.57
2019-02-25T11:04:39.960Z,6.07
2019-02-25T11:07:30.771Z,5.53
2019-02-25T11:10:34.598Z,6.23
2019-02-25T11:13:17.584Z,5.70
2019-02-25T11:16:07.314Z,5.30
2019-02-25T11:18:50.675Z,5.07
2019-02-25T11:21:35.321Z,5.87
2019-02-25T11:24:25.509Z,5.67
2019-02-25T11:27:09.528Z,6.30
2019-02-25T11:29:59.292Z,5.17
2019-02-25T11:32:51.033Z,5.80
2019-02-25T11:35:34.177Z,5.43
2019-02-25T11:38:25.915Z,5.97
2019-02-25T11:41:11.298Z,5.60
2019-02-25T11:44:01.068Z,5.40
2019-02-25T11:46:50.853Z,6.03
2019-02-25T11:49:33.548Z,5.30
2019-02-25T11:52:23.314Z,5.33
2019-02-25T11:55:13.200Z,5.33
2019-02-25T11:58:02.967Z,5.97
2019-02-25T12:00:52.737Z,5.37
2019-02-25T12:03:42.556Z,4.50
2019-02-25T12:06:32.373Z,5.47
2019-02-25T12:09:22.180Z,5.40
2019-02-25T12:12:11.971Z,5.77
2019-02-25T12:15:01.709Z,4.70
2019-02-25T12:17:51.432Z,4.83
2019-02-25T12:20:33.541Z,5.23
2019-02-25T12:23:23.328Z,4.77
2019-02-25T12:26:13.134Z,5.17
2019-02-25T12:28:55.817Z,5.10
2019-02-25T12:31:45.629Z,4.73
2019-02-25T12:34:54.551Z,4.67
2019-02-25T12:37:44.355Z,5.53
2019-02-25T12:40:46.406Z,5.03
2019-02-25T12:43:28.759Z,5.27
2019-02-25T12:46:18.495Z,5.63
2019-02-25T12:49:01.015Z,4.73
2019-02-25T12:51:50.716Z,4.73
2019-02-25T12:54:32.917Z,4.83
2019-02-25T12:57:22.617Z,4.40
2019-02-25T13:00:06.239Z,4.50
2019-02-25T13:03:15.049Z,4.60
2019-02-25T13:06:01.766Z,4.60
2019-02-25T13:08:51.477Z,4.43
2019-02-25T13:11:35.445Z,5.60
2019-02-25T13:14:25.149Z,4.57
2019-02-25T13:17:07.249Z,5.20
2019-02-25T13:19:56.951Z,4.37
2019-02-25T13:22:39.291Z,4.23
2019-02-25T13:25:29.061Z,4.87
2019-02-25T13:28:11.275Z,4.67
2019-02-25T13:31:02.928Z,4.97
2019-02-25T13:33:45.310Z,4.20
2019-02-25T13:36:35.102Z,4.90
2019-02-25T13:39:17.331Z,4.33
2019-02-25T13:42:07.147Z,4.80
2019-02-25T13:44:49.198Z,4.13
2019-02-25T13:50:40.734Z,4.37
2019-02-25T13:53:30.431Z,4.27
2019-02-25T13:56:13.941Z,4.20
2019-02-25T13:59:03.766Z,5.10
2019-02-25T14:01:49.880Z,4.80
2019-02-25T14:04:39.597Z,4.27
2019-02-25T14:07:23.700Z,4.00
2019-02-25T14:10:13.525Z,4.20
2019-02-25T14:12:56.395Z,4.20
2019-02-25T14:15:46.116Z,4.50
2019-02-25T14:18:28.371Z,4.03
2019-02-25T14:21:18.120Z,3.50
2019-02-25T14:24:00.687Z,4.43
2019-02-25T14:26:50.434Z,4.30
2019-02-25T14:29:33.317Z,4.23
2019-02-25T14:32:23.086Z,4.37
2019-02-25T14:35:12.983Z,4.33
2019-02-25T14:38:00.971Z,3.90
2019-02-25T14:40:43.855Z,4.13
2019-02-25T14:43:27.459Z,4.53
2019-02-25T14:46:21.797Z,3.90
2019-02-25T14:49:01.551Z,4.23
2019-02-25T14:51:51.276Z,4.40
2019-02-25T14:54:34.279Z,4.20
2019-02-25T14:57:24.886Z,4.43
2019-02-25T15:00:10.963Z,4.20
2019-02-25T15:03:00.679Z,3.70
2019-02-25T15:05:42.785Z,3.83
2019-02-25T15:08:32.528Z,3.97
2019-02-25T15:11:14.809Z,3.83
2019-02-25T15:14:05.932Z,3.90
2019-02-25T15:16:49.309Z,3.63
2019-02-25T15:19:40.688Z,3.93
2019-02-25T15:22:23.148Z,3.90
2019-02-25T15:25:13.729Z,3.80
2019-02-25T15:27:57.601Z,3.87
2019-02-25T15:30:47.433Z,4.10
2019-02-25T15:33:38.001Z,4.30
2019-02-25T15:36:22.271Z,4.30
2019-02-25T15:42:09.076Z,4.50
2019-02-25T15:47:36.113Z,4.80
2019-02-25T15:50:18.983Z,4.87
2019-02-25T15:53:10.014Z,3.80
2019-02-25T15:55:53.120Z,4.50
2019-02-25T15:58:42.863Z,4.10
2019-02-25T16:01:25.187Z,4.07
2019-02-25T16:04:14.942Z,4.30
2019-02-25T16:07:06.630Z,4.17
2019-02-25T16:09:48.591Z,4.63
2019-02-25T16:12:57.867Z,3.93
2019-02-25T16:15:41.543Z,3.83
2019-02-25T16:18:31.269Z,4.10
2019-02-25T16:21:20.981Z,3.70
2019-02-25T16:24:08.261Z,4.20
2019-02-25T16:26:58.336Z,3.93
2019-02-25T16:29:40.157Z,4.30
2019-02-25T16:32:29.971Z,4.00
2019-02-25T16:35:21.044Z,4.10
2019-02-25T16:38:11.196Z,4.30
2019-02-25T16:40:56.622Z,4.37
2019-02-25T16:43:44.959Z,4.17
2019-02-25T16:46:38.668Z,4.27
2019-02-25T16:49:20.167Z,4.20
2019-02-25T16:55:32.628Z,4.70
2019-02-25T16:58:15.521Z,3.97
2019-02-25T17:04:02.370Z,4.27
2019-02-25T17:06:53.481Z,3.97
2019-02-25T17:09:38.672Z,4.17
2019-02-25T17:12:29.510Z,3.93
2019-02-25T17:15:13.095Z,3.50
2019-02-25T17:18:02.829Z,3.80
2019-02-25T17:20:45.360Z,4.07
2019-02-25T17:23:37.107Z,4.33
2019-02-25T17:26:21.235Z,3.97
2019-02-25T17:29:31.888Z,4.30
2019-02-25T17:32:14.583Z,4.03
2019-02-25T17:35:06.990Z,4.10
2019-02-25T17:37:53.105Z,4.40
2019-02-25T17:40:42.627Z,3.70
2019-02-25T17:43:25.131Z,3.97
2019-02-25T17:46:14.858Z,4.03
2019-02-25T17:48:57.427Z,4.00
2019-02-25T17:52:06.277Z,3.70
2019-02-25T17:54:48.833Z,3.87
2019-02-25T17:57:38.820Z,4.07
2019-02-25T18:00:26.425Z,4.40
2019-02-25T18:03:17.622Z,4.00
2019-02-25T18:06:00.690Z,4.93
2019-02-25T18:08:34.236Z,4.53
2019-02-25T18:11:24.650Z,4.60
2019-02-25T18:14:17.049Z,5.20
2019-02-25T18:16:59.985Z,4.87
2019-02-25T18:19:50.682Z,4.77
2019-02-25T18:22:33.562Z,5.43
2019-02-25T18:25:23.500Z,5.77
2019-02-25T18:28:06.315Z,5.90
2019-02-25T18:30:59.638Z,5.57
2019-02-25T18:33:42.005Z,6.07
2019-02-25T18:36:33.285Z,5.70
2019-02-25T18:39:20.551Z,4.90
2019-02-25T18:42:11.697Z,4.90
2019-02-25T18:44:54.861Z,5.07
2019-02-25T18:47:44.577Z,4.97
2019-02-25T18:50:29.115Z,5.10
2019-02-25T18:53:20.514Z,4.70
2019-02-25T18:56:03.542Z,4.63
2019-02-25T18:58:55.022Z,4.80
2019-02-25T19:01:37.998Z,4.83
2019-02-25T19:04:27.766Z,6.00
2019-02-25T19:07:10.386Z,5.60
2019-02-25T19:10:00.458Z,6.37
2019-02-25T19:12:51.592Z,5.77
2019-02-25T19:15:34.636Z,6.13
2019-02-25T19:18:24.417Z,5.27
2019-02-25T19:21:14.118Z,5.13
2019-02-25T19:24:05.542Z,5.27
2019-02-25T19:26:55.266Z,4.63
2019-02-25T19:29:40.393Z,5.10
2019-02-25T19:32:30.148Z,4.57
2019-02-25T19:35:12.418Z,5.10
2019-02-25T19:38:05.134Z,5.00
2019-02-25T19:40:50.372Z,5.30
2019-02-25T19:43:38.096Z,6.00
2019-02-25T19:46:20.694Z,6.40
2019-02-25T19:49:11.515Z,5.30
2019-02-25T19:51:54.374Z,5.50
2019-02-25T19:54:45.928Z,5.97
2019-02-25T19:57:30.807Z,5.47
2019-02-25T20:03:28.963Z,6.37
2019-02-25T20:06:19.182Z,5.90
2019-02-25T20:09:02.882Z,5.90
2019-02-25T20:11:52.622Z,6.40
2019-02-25T20:17:28.825Z,5.60
2019-02-25T20:20:18.048Z,6.27
2019-02-25T20:23:01.676Z,6.30
2019-02-25T20:25:53.493Z,6.20
2019-02-25T20:28:36.418Z,6.43
2019-02-25T20:31:26.231Z,6.60
2019-02-25T20:34:18.522Z,6.10
2019-02-25T20:37:02.313Z,6.70
2019-02-25T20:39:52.167Z,6.90
2019-02-25T20:42:41.936Z,6.40
2019-02-25T20:45:33.210Z,6.67
2019-02-25T20:48:16.016Z,6.23
2019-02-25T20:51:07.330Z,6.60
2019-02-25T20:53:50.875Z,6.73
2019-02-25T20:56:41.075Z,6.50
2019-02-25T20:59:25.791Z,7.10
2019-02-25T21:02:16.752Z,7.07
2019-02-25T21:05:00.148Z,7.20
2019-02-25T21:08:09.066Z,6.77
2019-02-25T21:10:51.611Z,6.83
2019-02-25T21:13:41.324Z,19.33
2019-02-25T21:16:24.519Z,13.37
2019-02-25T21:19:17.564Z,6.73
2019-02-25T21:22:01.995Z,7.23
2019-02-25T21:27:45.608Z,6.23
2019-02-25T21:30:39.136Z,6.70
2019-02-25T21:33:28.281Z,6.60
2019-02-25T21:36:11.171Z,6.60
2019-02-25T21:39:00.979Z,6.07
2019-02-25T21:41:50.785Z,5.50
2019-02-25T21:44:40.555Z,6.03
2019-02-25T21:47:30.907Z,5.63
2019-02-25T21:50:14.918Z,6.40
2019-02-25T21:52:59.354Z,6.30
2019-02-25T21:55:51.117Z,6.40
2019-02-25T21:58:37.061Z,6.50
2019-02-25T22:01:19.402Z,5.80
2019-02-25T22:04:11.499Z,6.03
2019-02-25T22:06:55.664Z,6.10
2019-02-25T22:09:45.902Z,6.40
2019-02-25T22:12:32.886Z,7.57
2019-02-25T22:15:22.428Z,6.77
2019-02-25T22:18:06.310Z,6.53
2019-02-25T22:23:46.041Z,11.03
2019-02-25T22:26:17.069Z,7.40
2019-02-25T22:29:06.819Z,9.53
2019-02-25T22:31:48.715Z,8.83
2019-02-25T22:34:38.438Z,6.90
2019-02-25T22:37:44.290Z,12.07
2019-02-25T22:40:25.519Z,14.47
2019-02-25T22:43:16.424Z,11.80
2019-02-25T22:46:00.347Z,10.77
2019-02-25T22:48:51.804Z,7.97
2019-02-25T22:51:36.985Z,9.03
2019-02-25T22:57:29.505Z,6.90
2019-02-25T23:03:41.010Z,7.00
2019-02-25T23:06:30.704Z,7.03
2019-02-25T23:09:21.316Z,6.23
2019-02-25T23:12:06.033Z,6.90
2019-02-25T23:14:48.443Z,6.77
2019-02-25T23:17:40.113Z,6.67
2019-02-25T23:20:23.596Z,6.47
2019-02-25T23:23:14.525Z,6.73
2019-02-25T23:26:04.221Z,6.80
2019-02-25T23:28:46.353Z,7.63
2019-02-25T23:31:36.180Z,7.10
2019-02-25T23:37:21.605Z,6.13
2019-02-25T23:40:12.634Z,6.90
2019-02-25T23:43:03.398Z,7.40
2019-02-25T23:45:47.298Z,7.20
2019-02-25T23:48:38.638Z,7.23
2019-02-25T23:51:23.348Z,7.33
2019-02-25T23:54:16.022Z,6.47
2019-02-25T23:56:59.712Z,7.10
2019-02-25T23:59:51.687Z,7.23
